Alpine Trader — 9HVW9 — position and weather

sailwx.info

Track history (hours):
 
Tides and Currents Weather Stations Pressure Air Temp Water Temp Dewpoint Dewpoint Depression Visibility Wind Speed Wind Dir Waves Ship Positions

Alpine Trader

Last reported at 2015-Jul-02 03:31 UTC. Time now 2015-Jul-02 03:35 UTC.
Position N 37°48' E 121°19'.

Length 190 m; draft 6.5 m.

Type: Cargo ship. MMSI: 249874000.

Date/timePositionNaut miles runAvg speedWind from/ knotsBaromVisibWave heightAir tempDewpointWater temp
2015-Jul-02 03:31N 37°48' E 121°19'0 0.1
2015-Jul-02 02:31N 37°48' E 121°19'0 0.1
2015-Jul-02 01:31N 37°48' E 121°19'0 0.1
2015-Jul-02 00:31N 37°48' E 121°19'0 0.0
2015-Jul-01 23:31N 37°48' E 121°19'0 0.0
2015-Jul-01 22:22N 37°48' E 121°19'0 0.0
2015-Jul-01 21:31N 37°48' E 121°19'0 0.0
2015-Jul-01 20:31N 37°48' E 121°19'0 0.1
2015-Jul-01 19:28N 37°48' E 121°19'0 0.0
2015-Jul-01 18:28N 37°48' E 121°19'0 0.0
2015-Jul-01 17:31N 37°48' E 121°19'0 0.0
2015-Jul-01 16:28N 37°48' E 121°19'2 2.7
2015-Jul-01 15:34N 37°48' E 121°22'1111.4
2015-Jul-01 14:34N 37°47' E 121°37'0 0.1
2015-Jul-01 13:31N 37°47' E 121°37'0 0.0
2015-Jul-01 12:28N 37°47' E 121°37'0 0.1
2015-Jul-01 11:31N 37°47' E 121°37'0 0.0
2015-Jul-01 10:31N 37°47' E 121°37'0 0.0
2015-Jul-01 09:25N 37°47' E 121°37'0 0.0
2015-Jul-01 08:28N 37°47' E 121°37'0 0.0
2015-Jul-01 07:28N 37°47' E 121°37'0 0.0
2015-Jul-01 06:19N 37°47' E 121°37'0 0.1
2015-Jul-01 05:28N 37°47' E 121°37'0 0.0
2015-Jul-01 04:31N 37°47' E 121°37'0 0.0
2015-Jul-01 03:31N 37°47' E 121°37'0 0.0
2015-Jul-01 02:31N 37°47' E 121°37'0 0.0
2015-Jul-01 01:31N 37°47' E 121°37'0 0.0
2015-Jul-01 00:28N 37°47' E 121°37'0 0.0
2015-Jun-30 23:31N 37°47' E 121°37'0 0.0
2015-Jun-30 22:31N 37°47' E 121°37'0 0.0
2015-Jun-30 21:31N 37°47' E 121°37'0 0.0
2015-Jun-30 20:31N 37°47' E 121°37'0 0.0
2015-Jun-30 19:22N 37°47' E 121°37'0 0.0
2015-Jun-30 18:22N 37°47' E 121°37'0 0.0
2015-Jun-30 17:28N 37°47' E 121°37'0 0.0
2015-Jun-30 16:28N 37°47' E 121°37'0 0.0
2015-Jun-30 15:31N 37°47' E 121°37'0 0.0
2015-Jun-30 14:31N 37°47' E 121°37'0 0.0
2015-Jun-30 13:31N 37°47' E 121°37'0 0.0
2015-Jun-30 12:31N 37°47' E 121°37'0 0.0
2015-Jun-30 11:31N 37°47' E 121°37'2 1.8
2015-Jun-30 10:33N 37°47' E 121°35'1312.8
2015-Jun-30 09:33N 37°46' E 121°18'1110.9
2015-Jun-30 08:32N 37°43' E 121°05'1 0.2
2015-Jun-30 05:17N 37°43' E 121°04'0 0.0
2015-Jun-29 06:20N 37°43' E 121°04'0 0.0
2015-Jun-29 03:08N 37°43' E 121°04'0 0.0
2015-Jun-29 00:05N 37°43' E 121°04'0 0.0
2015-Jun-28 20:29N 37°43' E 121°04'0 0.0
2015-Jun-28 17:11N 37°43' E 121°04'0 0.0
2015-Jun-28 16:17N 37°43' E 121°04'0 0.0
2015-Jun-28 08:28N 37°43' E 121°04'7 7.1
2015-Jun-28 07:33N 37°46' E 121°12'9 9.5
2015-Jun-28 06:33N 37°46' E 121°24'1111.3
2015-Jun-28 05:33N 37°44' E 121°38'1212.0
2015-Jun-28 04:33N 37°42' E 121°53'1211.7
2015-Jun-28 03:33N 37°40' E 122°07'1111.4
2015-Jun-28 02:33N 37°38' E 122°21'1211.5
2015-Jun-28 01:33N 37°36' E 122°36'  
Track history (hours):
 
Tides and Currents Weather Stations Pressure Air Temp Water Temp Dewpoint Dewpoint Depression Visibility Wind Speed Wind Dir Waves Ship Positions

Alpine Trader

Last reported at 2015-Jul-02 03:31 UTC. Time now 2015-Jul-02 03:35 UTC.
Position N 37°48' E 121°19'.

Length 190 m; draft 6.5 m.

Type: Cargo ship. MMSI: 249874000.

Date/timePositionNaut miles runAvg speedWind from/ knotsBaromVisibWave heightAir tempDewpointWater temp
2015-Jul-02 03:31N 37°48' E 121°19'0 0.1
2015-Jul-02 02:31N 37°48' E 121°19'0 0.1
2015-Jul-02 01:31N 37°48' E 121°19'0 0.1
2015-Jul-02 00:31N 37°48' E 121°19'0 0.0
2015-Jul-01 23:31N 37°48' E 121°19'0 0.0
2015-Jul-01 22:22N 37°48' E 121°19'0 0.0
2015-Jul-01 21:31N 37°48' E 121°19'0 0.0
2015-Jul-01 20:31N 37°48' E 121°19'0 0.1
2015-Jul-01 19:28N 37°48' E 121°19'0 0.0
2015-Jul-01 18:28N 37°48' E 121°19'0 0.0
2015-Jul-01 17:31N 37°48' E 121°19'0 0.0
2015-Jul-01 16:28N 37°48' E 121°19'2 2.7
2015-Jul-01 15:34N 37°48' E 121°22'1111.4
2015-Jul-01 14:34N 37°47' E 121°37'0 0.1
2015-Jul-01 13:31N 37°47' E 121°37'0 0.0
2015-Jul-01 12:28N 37°47' E 121°37'0 0.1
2015-Jul-01 11:31N 37°47' E 121°37'0 0.0
2015-Jul-01 10:31N 37°47' E 121°37'0 0.0
2015-Jul-01 09:25N 37°47' E 121°37'0 0.0
2015-Jul-01 08:28N 37°47' E 121°37'0 0.0
2015-Jul-01 07:28N 37°47' E 121°37'0 0.0
2015-Jul-01 06:19N 37°47' E 121°37'0 0.1
2015-Jul-01 05:28N 37°47' E 121°37'0 0.0
2015-Jul-01 04:31N 37°47' E 121°37'0 0.0
2015-Jul-01 03:31N 37°47' E 121°37'0 0.0
2015-Jul-01 02:31N 37°47' E 121°37'0 0.0
2015-Jul-01 01:31N 37°47' E 121°37'0 0.0
2015-Jul-01 00:28N 37°47' E 121°37'0 0.0
2015-Jun-30 23:31N 37°47' E 121°37'0 0.0
2015-Jun-30 22:31N 37°47' E 121°37'0 0.0
2015-Jun-30 21:31N 37°47' E 121°37'0 0.0
2015-Jun-30 20:31N 37°47' E 121°37'0 0.0
2015-Jun-30 19:22N 37°47' E 121°37'0 0.0
2015-Jun-30 18:22N 37°47' E 121°37'0 0.0
2015-Jun-30 17:28N 37°47' E 121°37'0 0.0
2015-Jun-30 16:28N 37°47' E 121°37'0 0.0
2015-Jun-30 15:31N 37°47' E 121°37'0 0.0
2015-Jun-30 14:31N 37°47' E 121°37'0 0.0
2015-Jun-30 13:31N 37°47' E 121°37'0 0.0
2015-Jun-30 12:31N 37°47' E 121°37'0 0.0
2015-Jun-30 11:31N 37°47' E 121°37'2 1.8
2015-Jun-30 10:33N 37°47' E 121°35'1312.8
2015-Jun-30 09:33N 37°46' E 121°18'1110.9
2015-Jun-30 08:32N 37°43' E 121°05'1 0.2
2015-Jun-30 05:17N 37°43' E 121°04'0 0.0
2015-Jun-29 06:20N 37°43' E 121°04'0 0.0
2015-Jun-29 03:08N 37°43' E 121°04'0 0.0
2015-Jun-29 00:05N 37°43' E 121°04'0 0.0
2015-Jun-28 20:29N 37°43' E 121°04'0 0.0
2015-Jun-28 17:11N 37°43' E 121°04'0 0.0
2015-Jun-28 16:17N 37°43' E 121°04'0 0.0
2015-Jun-28 08:28N 37°43' E 121°04'7 7.1
2015-Jun-28 07:33N 37°46' E 121°12'9 9.5
2015-Jun-28 06:33N 37°46' E 121°24'1111.3
2015-Jun-28 05:33N 37°44' E 121°38'1212.0
2015-Jun-28 04:33N 37°42' E 121°53'1211.7
2015-Jun-28 03:33N 37°40' E 122°07'1111.4
2015-Jun-28 02:33N 37°38' E 122°21'1211.5
2015-Jun-28 01:33N 37°36' E 122°36'  

Dump ship's entire track history